Time;durP1;ratioP1;P1;durP2;ratioP2;P2;SDS_P1;SDS_P2;PMS_P1;PMS_P2;Temp;Humidity;BMP_temperature;BMP_pressure;BME280_temperature;BME280_humidity;BME280_pressure;Samples;Min_cycle;Max_cycle;Signal;HPM_P1;HPM_P2
2022/06/13 00:01:04;;;;;;;34.28;6.35;;;;;;;;;;4993510;28;20124;-60
2022/06/13 00:03:31;;;;;;;34.40;6.53;;;;;;;;;;5010935;28;20028;-59
2022/06/13 00:05:58;;;;;;;37.88;7.25;;;;;;;;;;5023272;28;20033;-59
2022/06/13 00:08:25;;;;;;;42.42;6.93;;;;;;;;;;5013192;28;20030;-60
2022/06/13 00:10:52;;;;;;;38.33;6.20;;;;;;;;;;5006214;28;20116;-59
2022/06/13 00:13:19;;;;;;;25.30;5.80;;;;;;;;;;5007519;28;20053;-60
2022/06/13 00:15:46;;;;;;;35.42;6.10;;;;;;;;;;5000889;28;20026;-61
2022/06/13 00:18:13;;;;;;;42.33;6.38;;;;;;;;;;4998272;28;20030;-56
2022/06/13 00:20:40;;;;;;;29.90;5.80;;;;;;;;;;4991958;28;20473;-55
2022/06/13 00:23:07;;;;;;;31.00;5.82;;;;;;;;;;4992450;28;20030;-53
2022/06/13 00:25:34;;;;;;;47.17;5.47;;;;;;;;;;4991080;28;20058;-52
2022/06/13 00:28:01;;;;;;;36.63;7.03;;;;;;;;;;4991118;28;20047;-59
2022/06/13 00:30:28;;;;;;;36.42;6.05;;;;;;;;;;4991975;28;20132;-58
2022/06/13 00:32:56;;;;;;;31.33;5.43;;;;;;;;;;5000127;28;20120;-58
2022/06/13 00:35:23;;;;;;;37.72;5.50;;;;;;;;;;5001253;28;20110;-59
2022/06/13 00:37:50;;;;;;;37.25;5.47;;;;;;;;;;5000135;28;20070;-59
2022/06/13 00:40:17;;;;;;;35.67;5.30;;;;;;;;;;5000466;28;20024;-59
2022/06/13 00:42:46;;;;;;;34.28;5.43;;;;;;;;;;5002672;28;20042;-59
2022/06/13 00:45:13;;;;;;;38.28;5.38;;;;;;;;;;5005527;28;20431;-58
2022/06/13 00:47:41;;;;;;;32.70;5.97;;;;;;;;;;4993940;28;20077;-58
2022/06/13 00:50:11;;;;;;;40.72;6.95;;;;;;;;;;4999057;28;20032;-58
2022/06/13 00:52:47;;;;;;;36.35;5.53;;;;;;;;;;5002026;28;20388;-59
2022/06/13 00:55:17;;;;;;;29.58;5.20;;;;;;;;;;4996331;28;20512;-59
2022/06/13 00:57:44;;;;;;;25.92;5.28;;;;;;;;;;4989430;28;20130;-58
2022/06/13 01:00:12;;;;;;;28.17;5.70;;;;;;;;;;5007996;28;20076;-59
2022/06/13 01:02:41;;;;;;;26.05;5.10;;;;;;;;;;4991949;28;20045;-60
2022/06/13 01:05:09;;;;;;;31.38;5.10;;;;;;;;;;4988410;28;20104;-59
2022/06/13 01:07:37;;;;;;;26.42;5.38;;;;;;;;;;5001236;28;20026;-59
2022/06/13 01:12:51;;;;;;;36.58;5.70;;;;;;;;;;4995267;28;20409;-59
2022/06/13 01:15:20;;;;;;;24.65;5.05;;;;;;;;;;4991133;28;20125;-59
2022/06/13 01:17:53;;;;;;;36.58;5.60;;;;;;;;;;4991199;28;20882;-58
2022/06/13 01:20:21;;;;;;;25.95;5.75;;;;;;;;;;4973357;28;20030;-59
2022/06/13 01:23:12;;;;;;;32.15;6.05;;;;;;;;;;4994751;28;20129;-60
2022/06/13 01:26:08;;;;;;;30.52;7.18;;;;;;;;;;4989222;28;20030;-60
2022/06/13 01:28:53;;;;;;;33.55;7.57;;;;;;;;;;4947791;28;20782;-59
2022/06/13 01:31:36;;;;;;;42.60;9.00;;;;;;;;;;5005443;28;20034;-58
2022/06/13 01:34:03;;;;;;;37.35;9.90;;;;;;;;;;5002165;28;20030;-59
2022/06/13 01:36:39;;;;;;;43.10;10.50;;;;;;;;;;5001806;28;20023;-60
2022/06/13 01:39:14;;;;;;;51.53;11.43;;;;;;;;;;4991963;28;20054;-59
2022/06/13 01:41:47;;;;;;;51.88;12.15;;;;;;;;;;5000596;28;20044;-58
2022/06/13 01:44:35;;;;;;;63.97;14.50;;;;;;;;;;5011663;28;20038;-58
2022/06/13 01:47:24;;;;;;;64.55;15.07;;;;;;;;;;5019546;28;20029;-57
2022/06/13 01:50:25;;;;;;;64.90;15.48;;;;;;;;;;5031420;28;20060;-58
2022/06/13 01:53:11;;;;;;;72.13;17.95;;;;;;;;;;5031830;28;20021;-58
2022/06/13 01:55:41;;;;;;;68.35;17.77;;;;;;;;;;5030876;28;20029;-58
2022/06/13 01:58:11;;;;;;;66.57;15.90;;;;;;;;;;5030371;28;20087;-58
2022/06/13 02:00:39;;;;;;;68.93;16.13;;;;;;;;;;5004650;28;20042;-58
2022/06/13 02:03:27;;;;;;;71.13;16.75;;;;;;;;;;5010627;28;20038;-58
2022/06/13 02:06:06;;;;;;;65.20;17.10;;;;;;;;;;5012616;28;20089;-58
2022/06/13 02:08:39;;;;;;;67.25;16.00;;;;;;;;;;5011339;28;20029;-58
2022/06/13 02:11:05;;;;;;;;;;;;;;;;;;5011950;28;20042;-58
2022/06/13 02:13:54;;;;;;;61.55;16.23;;;;;;;;;;5011844;28;19909;-58
2022/06/13 02:16:23;;;;;;;61.97;15.70;;;;;;;;;;4993973;28;20478;-58
2022/06/13 02:19:02;;;;;;;63.90;15.05;;;;;;;;;;4993430;28;20391;-58
2022/06/13 02:21:36;;;;;;;54.55;15.10;;;;;;;;;;5013408;28;20168;-58
2022/06/13 02:24:05;;;;;;;52.55;14.40;;;;;;;;;;5015952;28;20056;-58
2022/06/13 02:26:35;;;;;;;61.45;16.02;;;;;;;;;;5015588;28;20030;-58
2022/06/13 02:29:12;;;;;;;56.13;13.65;;;;;;;;;;5016054;28;20068;-58
2022/06/13 02:31:48;;;;;;;58.33;14.10;;;;;;;;;;5015753;28;20032;-58
2022/06/13 02:34:26;;;;;;;47.92;13.65;;;;;;;;;;5015591;28;20079;-58
2022/06/13 02:36:57;;;;;;;59.47;14.75;;;;;;;;;;5015284;28;20037;-58
2022/06/13 02:39:34;;;;;;;53.67;13.52;;;;;;;;;;5015890;28;20029;-58
2022/06/13 02:42:27;;;;;;;50.53;13.90;;;;;;;;;;5014953;28;20034;-58
2022/06/13 02:45:29;;;;;;;52.92;13.48;;;;;;;;;;4992517;28;20038;-58
2022/06/13 02:48:02;;;;;;;54.90;13.25;;;;;;;;;;4955346;29;20422;-58
2022/06/13 02:50:38;;;;;;;47.15;13.52;;;;;;;;;;5005715;28;20046;-58
2022/06/13 02:53:19;;;;;;;48.83;12.15;;;;;;;;;;5015552;28;20528;-58
2022/06/13 02:55:51;;;;;;;50.80;13.55;;;;;;;;;;5015738;28;20163;-58
2022/06/13 02:58:28;;;;;;;43.15;12.57;;;;;;;;;;5014793;28;20087;-58
2022/06/13 03:01:00;;;;;;;39.85;11.68;;;;;;;;;;5015524;28;20038;-58
2022/06/13 03:03:27;;;;;;;;;;;;;;;;;;4998016;28;20038;-58
2022/06/13 03:06:00;;;;;;;47.92;12.80;;;;;;;;;;4997697;28;19909;-58
2022/06/13 03:08:30;;;;;;;38.60;10.93;;;;;;;;;;5014881;28;20025;-58
2022/06/13 03:11:08;;;;;;;46.40;11.27;;;;;;;;;;5015321;28;20097;-58
2022/06/13 03:13:41;;;;;;;36.13;10.45;;;;;;;;;;5014606;28;20045;-58
2022/06/13 03:16:31;;;;;;;35.78;10.88;;;;;;;;;;5014891;28;20061;-58
2022/06/13 03:19:18;;;;;;;42.55;11.45;;;;;;;;;;5007602;28;20078;-58
2022/06/13 03:21:50;;;;;;;40.28;10.75;;;;;;;;;;5014351;28;20042;-58
2022/06/13 03:24:23;;;;;;;43.20;10.57;;;;;;;;;;5014196;28;20030;-57
2022/06/13 03:26:54;;;;;;;38.47;10.35;;;;;;;;;;4997393;28;20033;-59
2022/06/13 03:29:22;;;;;;;37.10;10.38;;;;;;;;;;5014771;28;20030;-58
2022/06/13 03:31:51;;;;;;;33.47;9.63;;;;;;;;;;5014339;28;20037;-57
2022/06/13 03:34:20;;;;;;;33.03;9.60;;;;;;;;;;5014782;28;20045;-58
2022/06/13 03:36:50;;;;;;;32.42;9.80;;;;;;;;;;5014122;28;20037;-58
2022/06/13 03:39:43;;;;;;;29.80;9.07;;;;;;;;;;5014826;28;20034;-58
2022/06/13 03:42:09;;;;;;;;;;;;;;;;;;5012133;28;20503;-58
2022/06/13 03:44:44;;;;;;;28.65;8.52;;;;;;;;;;5013883;28;19910;-58
2022/06/13 03:47:15;;;;;;;31.02;9.20;;;;;;;;;;5014826;28;20022;-58
2022/06/13 03:49:46;;;;;;;35.83;9.13;;;;;;;;;;5013788;28;20057;-58
2022/06/13 03:52:14;;;;;;;36.50;9.50;;;;;;;;;;5014292;28;20032;-58
2022/06/13 03:54:44;;;;;;;34.33;8.20;;;;;;;;;;5014535;28;20026;-58
2022/06/13 03:57:31;;;;;;;30.33;7.78;;;;;;;;;;5014110;28;20026;-58
2022/06/13 04:00:05;;;;;;;30.02;8.48;;;;;;;;;;5013787;28;20415;-58
2022/06/13 04:02:34;;;;;;;31.85;8.05;;;;;;;;;;5013762;28;20038;-58
2022/06/13 04:05:01;;;;;;;30.85;8.27;;;;;;;;;;5013853;28;20033;-58
2022/06/13 04:07:29;;;;;;;32.72;8.48;;;;;;;;;;5014150;28;20084;-58
2022/06/13 04:09:59;;;;;;;32.42;8.90;;;;;;;;;;5013914;28;20503;-57
2022/06/13 04:12:40;;;;;;;28.35;7.85;;;;;;;;;;5013443;28;20025;-58
2022/06/13 04:15:20;;;;;;;32.90;8.13;;;;;;;;;;5014117;28;20747;-58
2022/06/13 04:17:54;;;;;;;29.63;7.60;;;;;;;;;;5014018;28;20057;-58
2022/06/13 04:20:53;;;;;;;25.95;7.85;;;;;;;;;;4995703;28;20396;-58
2022/06/13 04:23:25;;;;;;;26.17;7.53;;;;;;;;;;4981224;28;20054;-58
2022/06/13 04:26:04;;;;;;;28.98;8.13;;;;;;;;;;5013208;28;20069;-56
2022/06/13 04:28:44;;;;;;;28.38;7.90;;;;;;;;;;5013803;28;20046;-57
2022/06/13 04:31:11;;;;;;;28.42;7.38;;;;;;;;;;5013389;28;20049;-56
2022/06/13 04:33:41;;;;;;;23.83;7.28;;;;;;;;;;5013470;28;20104;-57
2022/06/13 04:36:12;;;;;;;25.63;7.00;;;;;;;;;;5013706;28;20100;-57
2022/06/13 04:38:42;;;;;;;24.02;7.28;;;;;;;;;;5013017;28;20045;-58
2022/06/13 04:41:10;;;;;;;24.40;6.57;;;;;;;;;;4995167;28;20396;-58
2022/06/13 04:43:39;;;;;;;25.42;7.57;;;;;;;;;;4994698;28;20432;-58
2022/06/13 04:46:19;;;;;;;22.17;6.68;;;;;;;;;;5012860;28;20041;-58
2022/06/13 04:48:47;;;;;;;21.90;6.15;;;;;;;;;;5013194;28;20057;-58
2022/06/13 04:51:17;;;;;;;20.08;6.70;;;;;;;;;;5012305;28;20046;-58
2022/06/13 04:54:04;;;;;;;17.55;5.82;;;;;;;;;;5012350;28;20068;-58
2022/06/13 04:56:31;;;;;;;18.85;6.30;;;;;;;;;;5012929;28;20022;-58
2022/06/13 04:58:59;;;;;;;24.15;6.80;;;;;;;;;;5012069;28;20037;-58
2022/06/13 05:01:31;;;;;;;21.65;5.85;;;;;;;;;;5012261;28;20088;-58
2022/06/13 05:04:00;;;;;;;21.42;6.35;;;;;;;;;;5012757;28;20080;-58
2022/06/13 05:06:33;;;;;;;19.00;6.00;;;;;;;;;;5011276;28;20052;-58
2022/06/13 05:09:05;;;;;;;23.52;6.10;;;;;;;;;;5018284;28;20565;-58
2022/06/13 05:11:35;;;;;;;19.67;6.40;;;;;;;;;;5012916;28;20031;-58
2022/06/13 05:14:10;;;;;;;20.70;5.95;;;;;;;;;;5012083;28;20127;-58
2022/06/13 05:17:06;;;;;;;16.95;5.25;;;;;;;;;;5012151;28;20033;-58
2022/06/13 05:19:51;;;;;;;20.67;5.97;;;;;;;;;;4959891;28;20098;-58
2022/06/13 05:22:33;;;;;;;14.65;5.50;;;;;;;;;;5012301;28;20088;-58
2022/06/13 05:25:15;;;;;;;16.23;5.13;;;;;;;;;;5012459;28;20068;-58
2022/06/13 05:27:42;;;;;;;18.48;5.75;;;;;;;;;;5012072;28;20050;-58
2022/06/13 05:30:18;;;;;;;17.80;5.03;;;;;;;;;;5011686;28;20021;-58
2022/06/13 05:32:45;;;;;;;16.33;5.43;;;;;;;;;;5012261;28;20068;-58
2022/06/13 05:35:13;;;;;;;15.30;4.80;;;;;;;;;;5011916;28;20030;-58
2022/06/13 05:37:40;;;;;;;18.15;5.63;;;;;;;;;;5011915;28;20441;-58
2022/06/13 05:40:07;;;;;;;14.38;5.70;;;;;;;;;;5011843;28;20060;-58
2022/06/13 05:42:34;;;;;;;16.15;5.32;;;;;;;;;;5012092;28;20492;-58
2022/06/13 05:45:01;;;;;;;13.30;4.78;;;;;;;;;;5012375;28;20091;-58
2022/06/13 05:47:29;;;;;;;14.13;5.20;;;;;;;;;;5012490;28;20037;-58
2022/06/13 05:49:57;;;;;;;12.00;4.82;;;;;;;;;;5011460;28;20045;-58
2022/06/13 05:52:23;;;;;;;13.48;5.10;;;;;;;;;;5012354;28;20029;-58
2022/06/13 05:54:51;;;;;;;15.13;5.28;;;;;;;;;;5011332;28;20072;-58
2022/06/13 05:57:18;;;;;;;13.15;4.40;;;;;;;;;;5011535;28;20033;-58
2022/06/13 05:59:45;;;;;;;14.68;4.82;;;;;;;;;;5011171;28;20149;-58
2022/06/13 06:02:13;;;;;;;11.90;4.78;;;;;;;;;;5011368;28;20044;-58
2022/06/13 06:04:40;;;;;;;12.80;4.38;;;;;;;;;;5012076;28;20029;-58
2022/06/13 06:07:09;;;;;;;12.70;4.32;;;;;;;;;;5012153;28;20034;-58
2022/06/13 06:09:37;;;;;;;12.82;4.07;;;;;;;;;;5010861;28;20460;-58
2022/06/13 06:12:04;;;;;;;16.08;5.15;;;;;;;;;;5011714;28;20496;-58
2022/06/13 06:14:31;;;;;;;11.70;4.60;;;;;;;;;;5011511;28;20034;-58
2022/06/13 06:16:58;;;;;;;11.43;4.35;;;;;;;;;;5012262;28;20038;-58
2022/06/13 06:19:26;;;;;;;14.00;4.55;;;;;;;;;;5011410;28;20511;-58
2022/06/13 06:21:53;;;;;;;11.80;4.22;;;;;;;;;;5011604;28;20559;-58
2022/06/13 06:24:20;;;;;;;14.98;4.32;;;;;;;;;;5012018;28;20030;-58
2022/06/13 06:26:47;;;;;;;16.33;4.60;;;;;;;;;;5011722;28;20493;-58
2022/06/13 06:29:14;;;;;;;8.40;3.50;;;;;;;;;;5011451;28;20038;-58
2022/06/13 06:31:41;;;;;;;14.43;4.60;;;;;;;;;;5012015;28;20436;-58
2022/06/13 06:34:08;;;;;;;14.50;4.05;;;;;;;;;;5011014;28;20048;-58
2022/06/13 06:36:35;;;;;;;9.57;3.75;;;;;;;;;;5011789;28;20074;-58
2022/06/13 06:39:02;;;;;;;10.38;3.67;;;;;;;;;;5011606;28;20034;-58
2022/06/13 06:41:29;;;;;;;12.60;4.00;;;;;;;;;;5012015;28;20088;-58
2022/06/13 06:43:56;;;;;;;10.38;4.22;;;;;;;;;;5010957;28;20034;-58
2022/06/13 06:46:24;;;;;;;9.98;3.40;;;;;;;;;;5012093;28;20113;-59
2022/06/13 06:48:51;;;;;;;9.88;4.03;;;;;;;;;;5011336;28;20030;-58
2022/06/13 06:51:19;;;;;;;13.07;4.20;;;;;;;;;;5011909;28;20091;-58
2022/06/13 07:02:01;;;;;;;10.43;3.60;;;;;;;;;;5011079;28;20495;-58
2022/06/13 07:04:28;;;;;;;10.02;3.70;;;;;;;;;;5011370;28;20037;-58
2022/06/13 07:06:55;;;;;;;10.48;3.72;;;;;;;;;;5012553;28;20037;-58
2022/06/13 07:09:22;;;;;;;11.15;3.25;;;;;;;;;;5014668;28;20101;-58
2022/06/13 07:11:56;;;;;;;10.68;3.63;;;;;;;;;;5015081;28;20196;-58
2022/06/13 07:14:31;;;;;;;9.02;3.67;;;;;;;;;;5014745;28;20112;-58
2022/06/13 07:16:59;;;;;;;7.65;3.20;;;;;;;;;;5014525;28;20468;-58
2022/06/13 07:19:26;;;;;;;8.55;3.80;;;;;;;;;;5015170;28;20070;-58
2022/06/13 07:21:53;;;;;;;9.18;3.40;;;;;;;;;;5014594;28;20040;-58
2022/06/13 07:24:20;;;;;;;7.63;3.10;;;;;;;;;;5015031;28;20061;-58
2022/06/13 07:26:48;;;;;;;9.75;3.17;;;;;;;;;;5014440;28;20037;-58
2022/06/13 07:29:17;;;;;;;8.85;3.28;;;;;;;;;;5015070;28;20046;-58
2022/06/13 07:31:49;;;;;;;12.45;3.95;;;;;;;;;;5014698;28;20555;-58
2022/06/13 07:34:21;;;;;;;9.10;3.28;;;;;;;;;;5014377;28;20069;-58
2022/06/13 07:36:48;;;;;;;;;;;;;;;;;;5015303;28;20030;-58
2022/06/13 07:39:15;;;;;;;9.50;3.72;;;;;;;;;;5014519;28;20015;-58
2022/06/13 07:41:42;;;;;;;8.90;3.25;;;;;;;;;;5014330;28;20026;-58
2022/06/13 07:44:13;;;;;;;7.60;2.75;;;;;;;;;;5014446;28;20040;-58
2022/06/13 07:46:40;;;;;;;8.23;2.75;;;;;;;;;;5014349;28;20032;-58
2022/06/13 07:49:08;;;;;;;8.02;2.97;;;;;;;;;;5014822;28;20033;-58
2022/06/13 07:51:36;;;;;;;10.88;3.22;;;;;;;;;;5013878;28;20129;-59
2022/06/13 07:54:03;;;;;;;7.35;3.03;;;;;;;;;;5014583;28;20392;-58
2022/06/13 07:56:30;;;;;;;6.80;3.00;;;;;;;;;;5014014;28;20026;-58
2022/06/13 07:58:58;;;;;;;6.63;2.75;;;;;;;;;;5014351;28;20030;-58
2022/06/13 08:01:25;;;;;;;6.10;2.97;;;;;;;;;;5013882;28;20518;-58
2022/06/13 08:03:52;;;;;;;7.10;3.05;;;;;;;;;;5014424;28;20400;-58
2022/06/13 08:06:20;;;;;;;7.40;3.22;;;;;;;;;;5014206;28;20116;-58
2022/06/13 08:08:47;;;;;;;13.35;3.28;;;;;;;;;;5014013;28;20087;-58
2022/06/13 08:11:16;;;;;;;8.93;3.45;;;;;;;;;;5014354;28;20109;-58
2022/06/13 08:13:43;;;;;;;8.50;3.17;;;;;;;;;;5013267;28;20038;-58
2022/06/13 08:16:11;;;;;;;7.32;2.53;;;;;;;;;;5013972;28;20109;-58
2022/06/13 08:18:39;;;;;;;8.57;3.13;;;;;;;;;;5012874;28;20038;-58
2022/06/13 08:21:06;;;;;;;7.18;2.70;;;;;;;;;;5013996;28;20093;-58
2022/06/13 08:23:34;;;;;;;9.90;2.92;;;;;;;;;;5014118;28;20038;-58
2022/06/13 08:26:01;;;;;;;6.13;2.47;;;;;;;;;;5013398;28;20029;-58
2022/06/13 08:28:28;;;;;;;8.32;3.08;;;;;;;;;;4995699;28;20050;-58
2022/06/13 08:30:57;;;;;;;7.03;2.63;;;;;;;;;;5013834;28;20105;-58
2022/06/13 08:33:25;;;;;;;7.30;2.72;;;;;;;;;;5013423;28;20026;-58
2022/06/13 08:35:52;;;;;;;6.82;2.97;;;;;;;;;;5013283;28;20510;-58
2022/06/13 08:38:19;;;;;;;6.15;2.70;;;;;;;;;;5013880;28;20026;-58
2022/06/13 08:41:05;;;;;;;6.55;2.60;;;;;;;;;;4995485;28;20610;-58
2022/06/13 08:43:32;;;;;;;5.20;2.10;;;;;;;;;;5013506;28;20041;-58
2022/06/13 08:46:04;;;;;;;9.60;3.03;;;;;;;;;;5013519;28;20022;-58
2022/06/13 08:48:41;;;;;;;6.68;2.45;;;;;;;;;;5013170;28;20427;-58
2022/06/13 08:51:16;;;;;;;6.15;2.90;;;;;;;;;;5013501;28;20542;-58
2022/06/13 08:53:48;;;;;;;9.13;2.97;;;;;;;;;;5013279;28;20075;-58
2022/06/13 08:56:16;;;;;;;7.03;2.25;;;;;;;;;;5013038;28;20030;-58
2022/06/13 08:59:22;;;;;;;7.18;2.63;;;;;;;;;;5013459;28;20026;-58
2022/06/13 09:01:51;;;;;;;6.18;2.42;;;;;;;;;;5012633;28;20038;-58
2022/06/13 09:04:22;;;;;;;10.93;2.70;;;;;;;;;;5013439;28;20494;-58
2022/06/13 09:07:02;;;;;;;5.70;2.42;;;;;;;;;;5012977;28;20080;-58
2022/06/13 09:09:29;;;;;;;4.90;2.05;;;;;;;;;;5013087;28;20487;-58
2022/06/13 09:12:22;;;;;;;4.90;2.40;;;;;;;;;;5012558;28;20109;-58
2022/06/13 09:14:53;;;;;;;5.07;2.30;;;;;;;;;;5009862;28;20140;-58
2022/06/13 09:17:25;;;;;;;5.70;2.25;;;;;;;;;;5013233;28;20034;-58
2022/06/13 09:19:55;;;;;;;4.20;2.17;;;;;;;;;;5012998;28;20108;-58
2022/06/13 09:22:28;;;;;;;4.75;2.05;;;;;;;;;;5012545;28;20034;-58
2022/06/13 09:25:16;;;;;;;5.38;2.35;;;;;;;;;;5013254;28;20034;-58
2022/06/13 09:27:47;;;;;;;7.00;2.65;;;;;;;;;;5011522;28;20046;-58
2022/06/13 09:30:18;;;;;;;8.30;2.50;;;;;;;;;;5012898;28;20029;-58
2022/06/13 09:32:48;;;;;;;5.45;2.33;;;;;;;;;;5012258;28;20018;-58
2022/06/13 09:35:20;;;;;;;6.20;2.35;;;;;;;;;;5012320;28;20560;-58
2022/06/13 09:37:53;;;;;;;6.82;2.20;;;;;;;;;;5012019;28;20029;-58
2022/06/13 09:40:26;;;;;;;4.72;2.17;;;;;;;;;;5012569;28;20085;-58
2022/06/13 09:43:14;;;;;;;6.10;2.70;;;;;;;;;;5008758;28;20045;-58
2022/06/13 09:45:45;;;;;;;5.55;2.10;;;;;;;;;;4993847;28;20447;-58
2022/06/13 09:48:21;;;;;;;6.90;2.55;;;;;;;;;;5012076;28;20080;-58
2022/06/13 09:50:57;;;;;;;6.13;2.20;;;;;;;;;;5011806;28;20057;-58
2022/06/13 09:53:25;;;;;;;5.95;2.20;;;;;;;;;;5011412;28;20400;-58
2022/06/13 09:56:13;;;;;;;7.28;2.33;;;;;;;;;;5012143;28;20026;-58
2022/06/13 09:58:58;;;;;;;7.75;2.10;;;;;;;;;;4981522;28;20069;-58
2022/06/13 10:01:46;;;;;;;9.35;2.45;;;;;;;;;;5012317;28;20583;-58
2022/06/13 10:04:23;;;;;;;8.05;2.47;;;;;;;;;;5011507;28;20033;-58
2022/06/13 10:06:57;;;;;;;6.88;2.40;;;;;;;;;;5012397;28;20124;-58
2022/06/13 10:09:32;;;;;;;8.65;2.42;;;;;;;;;;5011854;28;20033;-58
2022/06/13 10:12:11;;;;;;;7.43;2.60;;;;;;;;;;5011647;28;20021;-58
2022/06/13 10:14:43;;;;;;;7.30;1.95;;;;;;;;;;5012018;28;20041;-58
2022/06/13 10:17:13;;;;;;;4.33;2.20;;;;;;;;;;5011862;28;20069;-58
2022/06/13 10:19:40;;;;;;;7.00;2.50;;;;;;;;;;5011217;28;20050;-58
2022/06/13 10:22:07;;;;;;;6.05;2.00;;;;;;;;;;5011737;28;20056;-58
2022/06/13 10:24:38;;;;;;;6.55;2.28;;;;;;;;;;5011410;28;20439;-58
2022/06/13 10:27:15;;;;;;;5.93;2.40;;;;;;;;;;5011931;28;20538;-58
2022/06/13 10:29:51;;;;;;;7.25;2.20;;;;;;;;;;5011470;28;20125;-58
2022/06/13 10:32:19;;;;;;;8.60;2.22;;;;;;;;;;5011888;28;20108;-58
2022/06/13 10:35:03;;;;;;;7.55;2.38;;;;;;;;;;5011829;28;20034;-58
2022/06/13 10:37:48;;;;;;;5.75;2.30;;;;;;;;;;5012047;28;20085;-59
2022/06/13 10:40:16;;;;;;;7.65;2.45;;;;;;;;;;5011076;28;20030;-58
2022/06/13 10:42:44;;;;;;;6.78;2.20;;;;;;;;;;5013754;28;20045;-58
2022/06/13 10:45:13;;;;;;;5.50;1.90;;;;;;;;;;5015163;28;20046;-58
2022/06/13 10:47:52;;;;;;;5.70;1.95;;;;;;;;;;5015914;28;20026;-58
2022/06/13 10:50:28;;;;;;;6.70;2.60;;;;;;;;;;5015511;28;20047;-58
2022/06/13 10:52:59;;;;;;;5.82;2.10;;;;;;;;;;5015612;28;20073;-58
2022/06/13 10:55:28;;;;;;;4.35;1.83;;;;;;;;;;5015056;28;20029;-58
2022/06/13 10:58:07;;;;;;;5.47;2.20;;;;;;;;;;5015497;28;20030;-58
2022/06/13 11:00:35;;;;;;;7.30;2.00;;;;;;;;;;5015225;28;20030;-58
2022/06/13 11:03:11;;;;;;;4.20;2.30;;;;;;;;;;5014557;28;20045;-58
2022/06/13 11:05:50;;;;;;;5.65;2.20;;;;;;;;;;5015580;28;20176;-58
2022/06/13 11:08:17;;;;;;;5.80;1.90;;;;;;;;;;5015113;28;20065;-58
2022/06/13 11:10:52;;;;;;;6.78;2.05;;;;;;;;;;5015154;28;20112;-58
2022/06/13 11:13:25;;;;;;;6.22;2.30;;;;;;;;;;5014444;28;20029;-58
2022/06/13 11:24:17;;;;;;;5.65;2.05;;;;;;;;;;5007975;28;20064;-58
2022/06/13 11:29:33;;;;;;;6.43;2.20;;;;;;;;;;4992594;28;20057;-57
2022/06/13 11:32:01;;;;;;;6.10;2.10;;;;;;;;;;4986125;28;20023;-60
2022/06/13 11:34:29;;;;;;;6.68;2.10;;;;;;;;;;4993197;28;20094;-57
2022/06/13 11:37:04;;;;;;;11.05;2.22;;;;;;;;;;4993546;28;20061;-58
2022/06/13 11:39:36;;;;;;;10.15;2.05;;;;;;;;;;4989731;28;20404;-58
2022/06/13 11:42:04;;;;;;;10.85;2.20;;;;;;;;;;4974480;28;20500;-56
2022/06/13 11:44:32;;;;;;;13.52;2.25;;;;;;;;;;4994030;28;20034;-57
2022/06/13 11:47:04;;;;;;;10.98;2.00;;;;;;;;;;4993010;28;20044;-54
2022/06/13 11:49:32;;;;;;;9.75;1.85;;;;;;;;;;4992678;28;20081;-58
2022/06/13 11:52:00;;;;;;;8.23;2.22;;;;;;;;;;4993451;28;20041;-59
2022/06/13 11:54:34;;;;;;;9.05;1.92;;;;;;;;;;4992142;28;20027;-58
2022/06/13 11:57:18;;;;;;;9.63;2.13;;;;;;;;;;4990105;28;20476;-59
2022/06/13 11:59:49;;;;;;;10.07;1.92;;;;;;;;;;4989897;28;20113;-59
2022/06/13 12:02:22;;;;;;;11.63;1.98;;;;;;;;;;4981884;28;20069;-59
2022/06/13 12:04:49;;;;;;;14.77;2.42;;;;;;;;;;4993279;28;20473;-59
2022/06/13 12:07:31;;;;;;;8.60;2.00;;;;;;;;;;4992817;28;20499;-59
2022/06/13 12:10:00;;;;;;;12.02;2.38;;;;;;;;;;4991957;28;20384;-59
2022/06/13 12:12:43;;;;;;;9.02;2.13;;;;;;;;;;4992293;28;20035;-59
2022/06/13 12:15:11;;;;;;;10.63;1.92;;;;;;;;;;4992137;28;20114;-58
2022/06/13 12:17:40;;;;;;;8.02;2.25;;;;;;;;;;4987921;28;20034;-58
2022/06/13 12:20:08;;;;;;;15.70;2.40;;;;;;;;;;4992017;28;20532;-59
2022/06/13 12:22:39;;;;;;;7.95;2.03;;;;;;;;;;4992411;28;20065;-59
2022/06/13 12:25:07;;;;;;;16.10;2.17;;;;;;;;;;4993323;28;20034;-59
2022/06/13 12:27:40;;;;;;;13.02;2.30;;;;;;;;;;4996572;28;20041;-59
2022/06/13 12:30:11;;;;;;;24.75;2.60;;;;;;;;;;5012340;28;20042;-58
2022/06/13 12:32:46;;;;;;;9.57;2.33;;;;;;;;;;5005791;28;20113;-59
2022/06/13 12:35:14;;;;;;;10.32;2.35;;;;;;;;;;5002143;28;20046;-59
2022/06/13 12:37:56;;;;;;;8.13;2.05;;;;;;;;;;5003020;28;20030;-58
2022/06/13 12:40:39;;;;;;;9.27;2.10;;;;;;;;;;5000653;28;20034;-57
2022/06/13 12:43:19;;;;;;;9.57;2.08;;;;;;;;;;4999000;28;20077;-59
2022/06/13 12:45:46;;;;;;;8.77;1.90;;;;;;;;;;5002722;28;20156;-58
2022/06/13 12:48:20;;;;;;;9.63;2.17;;;;;;;;;;5003078;28;20033;-59
2022/06/13 12:50:56;;;;;;;8.90;2.15;;;;;;;;;;5003222;28;20030;-60
2022/06/13 12:53:29;;;;;;;5.82;1.80;;;;;;;;;;4984366;28;20496;-58
2022/06/13 12:56:03;;;;;;;8.13;2.08;;;;;;;;;;5003319;28;20034;-58
2022/06/13 12:58:59;;;;;;;8.90;2.13;;;;;;;;;;5002773;28;20034;-58
2022/06/13 13:01:28;;;;;;;14.25;2.83;;;;;;;;;;4984585;28;20120;-59
2022/06/13 13:04:02;;;;;;;7.88;1.92;;;;;;;;;;4997808;28;20029;-59
2022/06/13 13:06:31;;;;;;;6.82;1.90;;;;;;;;;;4994795;28;20096;-59
2022/06/13 13:09:06;;;;;;;7.15;2.33;;;;;;;;;;4992508;28;20571;-59
2022/06/13 13:11:33;;;;;;;5.47;1.90;;;;;;;;;;4992520;28;20755;-59
2022/06/13 13:14:07;;;;;;;9.90;2.40;;;;;;;;;;4991683;28;20034;-59
2022/06/13 13:16:37;;;;;;;9.02;2.45;;;;;;;;;;4991744;28;20042;-58
2022/06/13 13:19:04;;;;;;;9.40;2.50;;;;;;;;;;4992061;28;20038;-58
2022/06/13 13:21:31;;;;;;;6.40;2.35;;;;;;;;;;4992003;28;20034;-58
2022/06/13 13:23:58;;;;;;;11.52;2.83;;;;;;;;;;4991383;28;20037;-59
2022/06/13 13:26:31;;;;;;;8.13;2.22;;;;;;;;;;4992268;28;20112;-59
2022/06/13 13:29:11;;;;;;;13.02;2.47;;;;;;;;;;4991712;28;20512;-60
2022/06/13 13:32:04;;;;;;;7.55;1.85;;;;;;;;;;4991974;28;20064;-58
2022/06/13 13:34:57;;;;;;;6.85;2.08;;;;;;;;;;4968987;28;20046;-59
2022/06/13 13:37:33;;;;;;;7.05;2.03;;;;;;;;;;4968756;28;20042;-59
2022/06/13 13:40:07;;;;;;;5.45;1.92;;;;;;;;;;5005437;28;20040;-59
2022/06/13 13:42:56;;;;;;;9.43;2.50;;;;;;;;;;5011236;28;20117;-60
2022/06/13 13:45:29;;;;;;;8.98;2.03;;;;;;;;;;5011238;28;20036;-60
2022/06/13 13:47:59;;;;;;;7.18;2.15;;;;;;;;;;4993518;28;20038;-60
2022/06/13 13:50:28;;;;;;;7.68;2.00;;;;;;;;;;5011490;28;20041;-59
2022/06/13 13:52:58;;;;;;;5.55;2.20;;;;;;;;;;5010898;28;20108;-60
2022/06/13 13:55:37;;;;;;;8.75;2.30;;;;;;;;;;5011062;28;20096;-60
2022/06/13 13:58:17;;;;;;;10.20;2.30;;;;;;;;;;5010991;28;20033;-60
2022/06/13 14:00:46;;;;;;;14.63;2.45;;;;;;;;;;5010793;28;20092;-62
2022/06/13 14:03:13;;;;;;;14.65;2.60;;;;;;;;;;4994557;28;20038;-59
2022/06/13 14:05:47;;;;;;;21.90;2.88;;;;;;;;;;4991437;28;20065;-59
2022/06/13 14:08:40;;;;;;;24.10;3.47;;;;;;;;;;4973708;28;20523;-60
2022/06/13 14:11:09;;;;;;;20.80;3.00;;;;;;;;;;4995160;28;20053;-60
2022/06/13 14:13:37;;;;;;;23.90;3.03;;;;;;;;;;4992845;28;20030;-59
2022/06/13 14:16:10;;;;;;;22.42;3.35;;;;;;;;;;4991271;28;20435;-60
2022/06/13 14:18:50;;;;;;;17.08;3.00;;;;;;;;;;4973031;28;20471;-60
2022/06/13 14:21:19;;;;;;;17.38;3.28;;;;;;;;;;5001539;28;20081;-60
2022/06/13 14:23:48;;;;;;;16.17;2.95;;;;;;;;;;4998644;28;20052;-59
2022/06/13 14:26:30;;;;;;;14.02;3.05;;;;;;;;;;4999838;28;20037;-60
2022/06/13 14:28:57;;;;;;;22.58;3.42;;;;;;;;;;4983834;28;20057;-60
2022/06/13 14:31:24;;;;;;;18.80;3.05;;;;;;;;;;5009690;28;20128;-59
2022/06/13 14:36:49;;;;;;;22.13;3.22;;;;;;;;;;5010406;28;20033;-59
2022/06/13 14:39:21;;;;;;;17.10;2.92;;;;;;;;;;5005953;28;20370;-60
2022/06/13 14:41:49;;;;;;;42.40;4.57;;;;;;;;;;5010494;28;20037;-58
2022/06/13 14:44:16;;;;;;;20.17;3.95;;;;;;;;;;5010731;28;20025;-58
2022/06/13 14:46:58;;;;;;;19.15;3.08;;;;;;;;;;5010852;28;20572;-59
2022/06/13 14:49:43;;;;;;;17.03;3.10;;;;;;;;;;5010259;28;20034;-59
2022/06/13 14:52:13;;;;;;;23.00;4.43;;;;;;;;;;5010415;28;20076;-59
2022/06/13 14:54:48;;;;;;;20.45;3.10;;;;;;;;;;5010337;28;20025;-59
2022/06/13 14:57:27;;;;;;;20.38;3.67;;;;;;;;;;5007931;28;20034;-59
2022/06/13 15:00:13;;;;;;;21.98;3.60;;;;;;;;;;5006179;28;20042;-59
2022/06/13 15:02:59;;;;;;;15.82;3.17;;;;;;;;;;5010412;28;20034;-59
2022/06/13 15:05:26;;;;;;;15.65;3.25;;;;;;;;;;5010365;28;20050;-59
2022/06/13 15:07:58;;;;;;;17.23;3.50;;;;;;;;;;5009886;28;20026;-59
2022/06/13 15:10:45;;;;;;;28.52;3.90;;;;;;;;;;5009832;28;20137;-60
2022/06/13 15:13:17;;;;;;;32.40;3.70;;;;;;;;;;5001154;28;20029;-59
2022/06/13 15:15:44;;;;;;;29.65;4.28;;;;;;;;;;4990709;28;20105;-59
2022/06/13 15:18:19;;;;;;;20.55;3.78;;;;;;;;;;4989392;28;20038;-61
2022/06/13 15:20:47;;;;;;;23.52;4.20;;;;;;;;;;4991026;28;20444;-60
2022/06/13 15:23:41;;;;;;;30.55;4.28;;;;;;;;;;4999482;28;20030;-60
2022/06/13 15:26:13;;;;;;;29.98;4.63;;;;;;;;;;5006788;28;20060;-59
2022/06/13 15:28:59;;;;;;;33.20;5.13;;;;;;;;;;5014471;28;20059;-59
2022/06/13 15:31:26;;;;;;;22.90;5.05;;;;;;;;;;5011835;28;20037;-60
2022/06/13 15:34:09;;;;;;;39.60;7.22;;;;;;;;;;5012889;28;20049;-59